sensor_id;sensor_type;location;lat;lon;timestamp;pressure;altitude;pressure_sealevel;temperature
17142;BMP180;32805;53.556;9.944;2022-12-20T00:01:00;101136.00;;;7.80
17142;BMP180;32805;53.556;9.944;2022-12-20T00:03:28;101146.00;;;7.90
17142;BMP180;32805;53.556;9.944;2022-12-20T00:05:55;101132.00;;;7.90
17142;BMP180;32805;53.556;9.944;2022-12-20T00:08:23;101127.00;;;7.90
17142;BMP180;32805;53.556;9.944;2022-12-20T00:10:51;101140.00;;;7.90
17142;BMP180;32805;53.556;9.944;2022-12-20T00:13:19;101127.00;;;7.90
17142;BMP180;32805;53.556;9.944;2022-12-20T00:15:48;101125.00;;;7.90
17142;BMP180;32805;53.556;9.944;2022-12-20T00:18:16;101119.00;;;8.00
17142;BMP180;32805;53.556;9.944;2022-12-20T00:20:43;101118.00;;;8.00
17142;BMP180;32805;53.556;9.944;2022-12-20T00:23:11;101124.00;;;8.00
17142;BMP180;32805;53.556;9.944;2022-12-20T00:25:39;101100.00;;;8.00
17142;BMP180;32805;53.556;9.944;2022-12-20T00:28:07;101104.00;;;7.90
17142;BMP180;32805;53.556;9.944;2022-12-20T00:30:35;101109.00;;;7.90
17142;BMP180;32805;53.556;9.944;2022-12-20T00:33:04;101112.00;;;7.90
17142;BMP180;32805;53.556;9.944;2022-12-20T00:35:33;101116.00;;;7.90
17142;BMP180;32805;53.556;9.944;2022-12-20T00:38:01;101112.00;;;8.00
17142;BMP180;32805;53.556;9.944;2022-12-20T00:40:28;101121.00;;;8.00
17142;BMP180;32805;53.556;9.944;2022-12-20T00:42:56;101114.00;;;8.00
17142;BMP180;32805;53.556;9.944;2022-12-20T00:45:27;101109.00;;;8.00
17142;BMP180;32805;53.556;9.944;2022-12-20T00:47:54;101105.00;;;8.00
17142;BMP180;32805;53.556;9.944;2022-12-20T00:50:24;101117.00;;;8.00
17142;BMP180;32805;53.556;9.944;2022-12-20T00:52:52;101102.00;;;8.00
17142;BMP180;32805;53.556;9.944;2022-12-20T00:55:20;101099.00;;;8.00
17142;BMP180;32805;53.556;9.944;2022-12-20T00:57:48;101107.00;;;7.80
17142;BMP180;32805;53.556;9.944;2022-12-20T01:00:17;101115.00;;;7.90
17142;BMP180;32805;53.556;9.944;2022-12-20T01:02:45;101091.00;;;8.00
17142;BMP180;32805;53.556;9.944;2022-12-20T01:05:13;101086.00;;;7.90
17142;BMP180;32805;53.556;9.944;2022-12-20T01:07:43;101079.00;;;7.90
17142;BMP180;32805;53.556;9.944;2022-12-20T01:10:10;101089.00;;;7.90
17142;BMP180;32805;53.556;9.944;2022-12-20T01:12:38;101103.00;;;7.90
17142;BMP180;32805;53.556;9.944;2022-12-20T01:15:07;101104.00;;;8.00
17142;BMP180;32805;53.556;9.944;2022-12-20T01:17:35;101103.00;;;7.90
17142;BMP180;32805;53.556;9.944;2022-12-20T01:20:04;101102.00;;;8.00
17142;BMP180;32805;53.556;9.944;2022-12-20T01:22:33;101106.00;;;8.00
17142;BMP180;32805;53.556;9.944;2022-12-20T01:25:02;101107.00;;;8.10
17142;BMP180;32805;53.556;9.944;2022-12-20T01:27:30;101101.00;;;8.20
17142;BMP180;32805;53.556;9.944;2022-12-20T01:29:58;101110.00;;;8.20
17142;BMP180;32805;53.556;9.944;2022-12-20T01:32:25;101109.00;;;8.20
17142;BMP180;32805;53.556;9.944;2022-12-20T01:34:53;101108.00;;;8.20
17142;BMP180;32805;53.556;9.944;2022-12-20T01:37:21;101113.00;;;8.30
17142;BMP180;32805;53.556;9.944;2022-12-20T01:39:49;101115.00;;;8.20
17142;BMP180;32805;53.556;9.944;2022-12-20T01:42:18;101101.00;;;8.40
17142;BMP180;32805;53.556;9.944;2022-12-20T01:44:53;101109.00;;;8.40
17142;BMP180;32805;53.556;9.944;2022-12-20T01:47:22;101093.00;;;8.40
17142;BMP180;32805;53.556;9.944;2022-12-20T01:49:54;101089.00;;;8.40
17142;BMP180;32805;53.556;9.944;2022-12-20T01:52:27;101078.00;;;8.50
17142;BMP180;32805;53.556;9.944;2022-12-20T01:55:01;101095.00;;;8.50
17142;BMP180;32805;53.556;9.944;2022-12-20T01:57:35;101087.00;;;8.40
17142;BMP180;32805;53.556;9.944;2022-12-20T02:00:05;101100.00;;;8.50
17142;BMP180;32805;53.556;9.944;2022-12-20T02:02:39;101083.00;;;8.50
17142;BMP180;32805;53.556;9.944;2022-12-20T02:05:09;101084.00;;;8.50
17142;BMP180;32805;53.556;9.944;2022-12-20T02:07:45;101084.00;;;8.60
17142;BMP180;32805;53.556;9.944;2022-12-20T02:10:16;101078.00;;;8.50
17142;BMP180;32805;53.556;9.944;2022-12-20T02:12:47;101076.00;;;8.60
17142;BMP180;32805;53.556;9.944;2022-12-20T02:15:24;101081.00;;;8.70
17142;BMP180;32805;53.556;9.944;2022-12-20T02:18:06;101076.00;;;8.60
17142;BMP180;32805;53.556;9.944;2022-12-20T02:20:49;101077.00;;;8.70
17142;BMP180;32805;53.556;9.944;2022-12-20T02:23:41;101072.00;;;8.70
17142;BMP180;32805;53.556;9.944;2022-12-20T02:26:26;101062.00;;;8.70
17142;BMP180;32805;53.556;9.944;2022-12-20T02:29:20;101050.00;;;8.70
17142;BMP180;32805;53.556;9.944;2022-12-20T02:32:00;101066.00;;;8.80
17142;BMP180;32805;53.556;9.944;2022-12-20T02:34:32;101044.00;;;8.80
17142;BMP180;32805;53.556;9.944;2022-12-20T02:37:00;101070.00;;;8.80
17142;BMP180;32805;53.556;9.944;2022-12-20T02:39:30;101063.00;;;8.80
17142;BMP180;32805;53.556;9.944;2022-12-20T02:42:00;101055.00;;;8.90
17142;BMP180;32805;53.556;9.944;2022-12-20T02:44:31;101058.00;;;8.90
17142;BMP180;32805;53.556;9.944;2022-12-20T02:47:24;101060.00;;;8.90
17142;BMP180;32805;53.556;9.944;2022-12-20T02:49:53;101053.00;;;9.00
17142;BMP180;32805;53.556;9.944;2022-12-20T02:52:24;101043.00;;;8.90
17142;BMP180;32805;53.556;9.944;2022-12-20T02:54:56;101041.00;;;8.90
17142;BMP180;32805;53.556;9.944;2022-12-20T02:57:32;101038.00;;;8.90
17142;BMP180;32805;53.556;9.944;2022-12-20T03:00:05;101024.00;;;9.00
17142;BMP180;32805;53.556;9.944;2022-12-20T03:02:35;101027.00;;;9.00
17142;BMP180;32805;53.556;9.944;2022-12-20T03:05:20;101039.00;;;9.00
17142;BMP180;32805;53.556;9.944;2022-12-20T03:07:49;101031.00;;;9.00
17142;BMP180;32805;53.556;9.944;2022-12-20T03:10:20;101043.00;;;9.00
17142;BMP180;32805;53.556;9.944;2022-12-20T03:15:59;101039.00;;;9.10
17142;BMP180;32805;53.556;9.944;2022-12-20T03:18:29;101047.00;;;9.00
17142;BMP180;32805;53.556;9.944;2022-12-20T03:20:56;101043.00;;;9.10
17142;BMP180;32805;53.556;9.944;2022-12-20T03:23:24;101043.00;;;9.10
17142;BMP180;32805;53.556;9.944;2022-12-20T03:25:52;101036.00;;;9.10
17142;BMP180;32805;53.556;9.944;2022-12-20T03:28:28;101027.00;;;9.10
17142;BMP180;32805;53.556;9.944;2022-12-20T03:30:56;101024.00;;;9.00
17142;BMP180;32805;53.556;9.944;2022-12-20T03:33:24;101026.00;;;9.20
17142;BMP180;32805;53.556;9.944;2022-12-20T03:35:54;101031.00;;;9.20
17142;BMP180;32805;53.556;9.944;2022-12-20T03:38:22;101044.00;;;9.40
17142;BMP180;32805;53.556;9.944;2022-12-20T03:40:50;101053.00;;;9.30
17142;BMP180;32805;53.556;9.944;2022-12-20T03:43:20;101047.00;;;9.30
17142;BMP180;32805;53.556;9.944;2022-12-20T03:45:47;101041.00;;;9.30
17142;BMP180;32805;53.556;9.944;2022-12-20T03:48:16;101040.00;;;9.40
17142;BMP180;32805;53.556;9.944;2022-12-20T03:50:45;101042.00;;;9.40
17142;BMP180;32805;53.556;9.944;2022-12-20T03:53:15;101029.00;;;9.40
17142;BMP180;32805;53.556;9.944;2022-12-20T03:55:43;101031.00;;;9.50
17142;BMP180;32805;53.556;9.944;2022-12-20T03:58:14;101023.00;;;9.40
17142;BMP180;32805;53.556;9.944;2022-12-20T04:00:42;101021.00;;;9.40
17142;BMP180;32805;53.556;9.944;2022-12-20T04:03:29;101031.00;;;9.40
17142;BMP180;32805;53.556;9.944;2022-12-20T04:06:02;101031.00;;;9.40
17142;BMP180;32805;53.556;9.944;2022-12-20T04:08:32;101020.00;;;9.40
17142;BMP180;32805;53.556;9.944;2022-12-20T04:10:59;101023.00;;;9.40
17142;BMP180;32805;53.556;9.944;2022-12-20T04:13:53;101025.00;;;9.50
17142;BMP180;32805;53.556;9.944;2022-12-20T04:16:23;101024.00;;;9.50
17142;BMP180;32805;53.556;9.944;2022-12-20T04:18:53;101020.00;;;9.50
17142;BMP180;32805;53.556;9.944;2022-12-20T04:21:23;101014.00;;;9.50
17142;BMP180;32805;53.556;9.944;2022-12-20T04:23:56;101021.00;;;9.50
17142;BMP180;32805;53.556;9.944;2022-12-20T04:26:33;101017.00;;;9.50
17142;BMP180;32805;53.556;9.944;2022-12-20T04:29:02;101022.00;;;9.50
17142;BMP180;32805;53.556;9.944;2022-12-20T04:31:31;101025.00;;;9.50
17142;BMP180;32805;53.556;9.944;2022-12-20T04:33:59;101005.00;;;9.60
17142;BMP180;32805;53.556;9.944;2022-12-20T04:36:29;101005.00;;;9.60
17142;BMP180;32805;53.556;9.944;2022-12-20T04:39:01;101005.00;;;9.60
17142;BMP180;32805;53.556;9.944;2022-12-20T04:41:37;101013.00;;;9.50
17142;BMP180;32805;53.556;9.944;2022-12-20T04:44:09;101000.00;;;9.60
17142;BMP180;32805;53.556;9.944;2022-12-20T04:46:37;100992.00;;;9.70
17142;BMP180;32805;53.556;9.944;2022-12-20T04:49:10;100995.00;;;9.60
17142;BMP180;32805;53.556;9.944;2022-12-20T04:51:40;100996.00;;;9.60
17142;BMP180;32805;53.556;9.944;2022-12-20T04:54:11;100990.00;;;9.60
17142;BMP180;32805;53.556;9.944;2022-12-20T04:56:47;101005.00;;;9.60
17142;BMP180;32805;53.556;9.944;2022-12-20T04:59:19;101009.00;;;9.60
17142;BMP180;32805;53.556;9.944;2022-12-20T05:01:50;101006.00;;;9.40
17142;BMP180;32805;53.556;9.944;2022-12-20T05:04:34;101016.00;;;9.30
17142;BMP180;32805;53.556;9.944;2022-12-20T05:07:03;101020.00;;;9.20
17142;BMP180;32805;53.556;9.944;2022-12-20T05:09:34;101001.00;;;9.10
17142;BMP180;32805;53.556;9.944;2022-12-20T05:12:02;101010.00;;;9.10
17142;BMP180;32805;53.556;9.944;2022-12-20T05:14:31;101002.00;;;9.10
17142;BMP180;32805;53.556;9.944;2022-12-20T05:16:59;101015.00;;;9.00
17142;BMP180;32805;53.556;9.944;2022-12-20T05:19:27;101001.00;;;8.90
17142;BMP180;32805;53.556;9.944;2022-12-20T05:21:55;101009.00;;;9.00
17142;BMP180;32805;53.556;9.944;2022-12-20T05:24:54;101001.00;;;9.00
17142;BMP180;32805;53.556;9.944;2022-12-20T05:27:40;101001.00;;;9.10
17142;BMP180;32805;53.556;9.944;2022-12-20T05:30:09;101003.00;;;9.00
17142;BMP180;32805;53.556;9.944;2022-12-20T05:32:39;101006.00;;;9.00
17142;BMP180;32805;53.556;9.944;2022-12-20T05:35:08;101008.00;;;9.00
17142;BMP180;32805;53.556;9.944;2022-12-20T05:37:36;101003.00;;;9.00
17142;BMP180;32805;53.556;9.944;2022-12-20T05:40:13;100993.00;;;8.90
17142;BMP180;32805;53.556;9.944;2022-12-20T05:42:43;100998.00;;;8.90
17142;BMP180;32805;53.556;9.944;2022-12-20T05:45:12;100993.00;;;8.90
17142;BMP180;32805;53.556;9.944;2022-12-20T05:47:47;100987.00;;;9.00
17142;BMP180;32805;53.556;9.944;2022-12-20T05:50:15;101010.00;;;9.00
17142;BMP180;32805;53.556;9.944;2022-12-20T05:53:03;100993.00;;;9.00
17142;BMP180;32805;53.556;9.944;2022-12-20T05:55:44;100992.00;;;9.10
17142;BMP180;32805;53.556;9.944;2022-12-20T05:58:12;100998.00;;;9.00
17142;BMP180;32805;53.556;9.944;2022-12-20T06:00:50;100993.00;;;9.10
17142;BMP180;32805;53.556;9.944;2022-12-20T06:03:19;101003.00;;;9.00
17142;BMP180;32805;53.556;9.944;2022-12-20T06:05:48;101010.00;;;9.00
17142;BMP180;32805;53.556;9.944;2022-12-20T06:08:22;101001.00;;;9.00
17142;BMP180;32805;53.556;9.944;2022-12-20T06:11:01;101003.00;;;9.00
17142;BMP180;32805;53.556;9.944;2022-12-20T06:13:37;101006.00;;;9.10
17142;BMP180;32805;53.556;9.944;2022-12-20T06:16:06;101013.00;;;9.10
17142;BMP180;32805;53.556;9.944;2022-12-20T06:18:34;101019.00;;;9.20
17142;BMP180;32805;53.556;9.944;2022-12-20T06:21:03;101003.00;;;9.20
17142;BMP180;32805;53.556;9.944;2022-12-20T06:23:31;101016.00;;;9.20
17142;BMP180;32805;53.556;9.944;2022-12-20T06:26:09;101003.00;;;9.10
17142;BMP180;32805;53.556;9.944;2022-12-20T06:28:48;100980.00;;;9.10
17142;BMP180;32805;53.556;9.944;2022-12-20T06:31:27;100996.00;;;9.20
17142;BMP180;32805;53.556;9.944;2022-12-20T06:33:56;101006.00;;;9.20
17142;BMP180;32805;53.556;9.944;2022-12-20T06:36:28;100996.00;;;9.20
17142;BMP180;32805;53.556;9.944;2022-12-20T06:39:08;100986.00;;;9.10
17142;BMP180;32805;53.556;9.944;2022-12-20T06:41:48;100984.00;;;9.30
17142;BMP180;32805;53.556;9.944;2022-12-20T06:44:18;100990.00;;;9.30
17142;BMP180;32805;53.556;9.944;2022-12-20T06:46:48;100991.00;;;9.30
17142;BMP180;32805;53.556;9.944;2022-12-20T06:49:16;100989.00;;;9.30
17142;BMP180;32805;53.556;9.944;2022-12-20T06:51:47;100981.00;;;9.30
17142;BMP180;32805;53.556;9.944;2022-12-20T06:54:18;100990.00;;;9.40
17142;BMP180;32805;53.556;9.944;2022-12-20T06:56:46;100996.00;;;9.40
17142;BMP180;32805;53.556;9.944;2022-12-20T06:59:17;100995.00;;;9.40
17142;BMP180;32805;53.556;9.944;2022-12-20T07:01:45;101001.00;;;9.40
17142;BMP180;32805;53.556;9.944;2022-12-20T07:04:13;100993.00;;;9.40
17142;BMP180;32805;53.556;9.944;2022-12-20T07:06:41;100986.00;;;9.50
17142;BMP180;32805;53.556;9.944;2022-12-20T07:09:09;101000.00;;;9.40
17142;BMP180;32805;53.556;9.944;2022-12-20T07:11:37;100999.00;;;9.40
17142;BMP180;32805;53.556;9.944;2022-12-20T07:14:04;101011.00;;;9.40
17142;BMP180;32805;53.556;9.944;2022-12-20T07:16:34;101022.00;;;9.40
17142;BMP180;32805;53.556;9.944;2022-12-20T07:19:02;101014.00;;;9.40
17142;BMP180;32805;53.556;9.944;2022-12-20T07:21:30;100997.00;;;9.40
17142;BMP180;32805;53.556;9.944;2022-12-20T07:23:58;101001.00;;;9.30
17142;BMP180;32805;53.556;9.944;2022-12-20T07:26:26;100991.00;;;9.40
17142;BMP180;32805;53.556;9.944;2022-12-20T07:28:54;100980.00;;;9.50
17142;BMP180;32805;53.556;9.944;2022-12-20T07:31:22;100988.00;;;9.50
17142;BMP180;32805;53.556;9.944;2022-12-20T07:33:55;100984.00;;;9.50
17142;BMP180;32805;53.556;9.944;2022-12-20T07:36:24;100963.00;;;9.50
17142;BMP180;32805;53.556;9.944;2022-12-20T07:38:55;100979.00;;;9.30
17142;BMP180;32805;53.556;9.944;2022-12-20T07:41:24;100981.00;;;9.40
17142;BMP180;32805;53.556;9.944;2022-12-20T07:43:52;100965.00;;;9.40
17142;BMP180;32805;53.556;9.944;2022-12-20T07:46:24;100976.00;;;9.40
17142;BMP180;32805;53.556;9.944;2022-12-20T07:48:53;100977.00;;;9.50
17142;BMP180;32805;53.556;9.944;2022-12-20T07:51:27;100989.00;;;9.50
17142;BMP180;32805;53.556;9.944;2022-12-20T07:54:00;100988.00;;;9.40
17142;BMP180;32805;53.556;9.944;2022-12-20T07:56:30;101003.00;;;9.40
17142;BMP180;32805;53.556;9.944;2022-12-20T07:59:06;100985.00;;;9.40
17142;BMP180;32805;53.556;9.944;2022-12-20T08:01:36;100963.00;;;9.50
17142;BMP180;32805;53.556;9.944;2022-12-20T08:04:09;100970.00;;;9.50
17142;BMP180;32805;53.556;9.944;2022-12-20T08:06:38;100969.00;;;9.60
17142;BMP180;32805;53.556;9.944;2022-12-20T08:09:08;100979.00;;;9.60
17142;BMP180;32805;53.556;9.944;2022-12-20T08:11:39;100963.00;;;9.50
17142;BMP180;32805;53.556;9.944;2022-12-20T08:14:08;100979.00;;;9.50
17142;BMP180;32805;53.556;9.944;2022-12-20T08:16:36;100980.00;;;9.50
17142;BMP180;32805;53.556;9.944;2022-12-20T08:19:05;100953.00;;;9.60
17142;BMP180;32805;53.556;9.944;2022-12-20T08:21:33;100969.00;;;9.60
17142;BMP180;32805;53.556;9.944;2022-12-20T08:24:01;100973.00;;;9.70
17142;BMP180;32805;53.556;9.944;2022-12-20T08:26:29;100962.00;;;9.70
17142;BMP180;32805;53.556;9.944;2022-12-20T08:28:57;100961.00;;;9.70
17142;BMP180;32805;53.556;9.944;2022-12-20T08:31:25;100953.00;;;9.70
17142;BMP180;32805;53.556;9.944;2022-12-20T08:33:53;100947.00;;;9.70
17142;BMP180;32805;53.556;9.944;2022-12-20T08:36:25;100954.00;;;9.70
17142;BMP180;32805;53.556;9.944;2022-12-20T08:38:53;100935.00;;;9.80
17142;BMP180;32805;53.556;9.944;2022-12-20T08:41:21;100945.00;;;9.80
17142;BMP180;32805;53.556;9.944;2022-12-20T08:43:49;100941.00;;;9.90
17142;BMP180;32805;53.556;9.944;2022-12-20T08:46:17;100944.00;;;10.00
17142;BMP180;32805;53.556;9.944;2022-12-20T08:48:48;100944.00;;;10.00
17142;BMP180;32805;53.556;9.944;2022-12-20T08:51:17;100945.00;;;10.00
17142;BMP180;32805;53.556;9.944;2022-12-20T08:54:03;100947.00;;;10.00
17142;BMP180;32805;53.556;9.944;2022-12-20T08:56:37;100933.00;;;10.00
17142;BMP180;32805;53.556;9.944;2022-12-20T08:59:07;100927.00;;;10.00
17142;BMP180;32805;53.556;9.944;2022-12-20T09:01:35;100892.00;;;10.00
17142;BMP180;32805;53.556;9.944;2022-12-20T09:04:03;100935.00;;;10.00
17142;BMP180;32805;53.556;9.944;2022-12-20T09:06:38;100896.00;;;10.10
17142;BMP180;32805;53.556;9.944;2022-12-20T09:09:08;100900.00;;;10.20
17142;BMP180;32805;53.556;9.944;2022-12-20T09:11:39;100932.00;;;10.20
17142;BMP180;32805;53.556;9.944;2022-12-20T09:14:08;100936.00;;;10.30
17142;BMP180;32805;53.556;9.944;2022-12-20T09:16:36;100928.00;;;10.30
17142;BMP180;32805;53.556;9.944;2022-12-20T09:19:04;100934.00;;;10.30
17142;BMP180;32805;53.556;9.944;2022-12-20T09:21:33;100931.00;;;10.40
17142;BMP180;32805;53.556;9.944;2022-12-20T09:24:01;100933.00;;;10.40
17142;BMP180;32805;53.556;9.944;2022-12-20T09:26:30;100926.00;;;10.40
17142;BMP180;32805;53.556;9.944;2022-12-20T09:28:58;100925.00;;;10.40
17142;BMP180;32805;53.556;9.944;2022-12-20T09:31:27;100938.00;;;10.40
17142;BMP180;32805;53.556;9.944;2022-12-20T09:33:57;100920.00;;;10.40
17142;BMP180;32805;53.556;9.944;2022-12-20T09:36:26;100918.00;;;10.40
17142;BMP180;32805;53.556;9.944;2022-12-20T09:38:55;100935.00;;;10.50
17142;BMP180;32805;53.556;9.944;2022-12-20T09:41:27;100934.00;;;10.50
17142;BMP180;32805;53.556;9.944;2022-12-20T09:43:59;100950.00;;;10.50
17142;BMP180;32805;53.556;9.944;2022-12-20T09:46:27;100936.00;;;10.50
17142;BMP180;32805;53.556;9.944;2022-12-20T09:48:56;100952.00;;;10.50
17142;BMP180;32805;53.556;9.944;2022-12-20T09:51:36;100930.00;;;10.60
17142;BMP180;32805;53.556;9.944;2022-12-20T09:54:18;100941.00;;;10.60
17142;BMP180;32805;53.556;9.944;2022-12-20T09:56:56;100937.00;;;10.60
17142;BMP180;32805;53.556;9.944;2022-12-20T09:59:29;100942.00;;;10.50
17142;BMP180;32805;53.556;9.944;2022-12-20T10:02:08;100918.00;;;10.40
17142;BMP180;32805;53.556;9.944;2022-12-20T10:04:58;100928.00;;;10.30
17142;BMP180;32805;53.556;9.944;2022-12-20T10:07:34;100930.00;;;10.20
17142;BMP180;32805;53.556;9.944;2022-12-20T10:10:25;100915.00;;;10.20
17142;BMP180;32805;53.556;9.944;2022-12-20T10:12:59;100910.00;;;10.20
17142;BMP180;32805;53.556;9.944;2022-12-20T10:15:35;100911.00;;;10.30
17142;BMP180;32805;53.556;9.944;2022-12-20T10:18:19;100904.00;;;10.40
17142;BMP180;32805;53.556;9.944;2022-12-20T10:20:56;100885.00;;;10.40
17142;BMP180;32805;53.556;9.944;2022-12-20T10:23:29;100895.00;;;10.40
17142;BMP180;32805;53.556;9.944;2022-12-20T10:26:00;100894.00;;;10.40
17142;BMP180;32805;53.556;9.944;2022-12-20T10:28:30;100894.00;;;10.40
17142;BMP180;32805;53.556;9.944;2022-12-20T10:31:04;100899.00;;;10.50
17142;BMP180;32805;53.556;9.944;2022-12-20T10:33:39;100883.00;;;10.60
17142;BMP180;32805;53.556;9.944;2022-12-20T10:36:20;100876.00;;;10.60
17142;BMP180;32805;53.556;9.944;2022-12-20T10:38:54;100871.00;;;10.70
17142;BMP180;32805;53.556;9.944;2022-12-20T10:41:23;100879.00;;;10.80
17142;BMP180;32805;53.556;9.944;2022-12-20T10:43:57;100860.00;;;10.80
17142;BMP180;32805;53.556;9.944;2022-12-20T10:46:36;100859.00;;;10.90
17142;BMP180;32805;53.556;9.944;2022-12-20T10:49:26;100872.00;;;11.00
17142;BMP180;32805;53.556;9.944;2022-12-20T10:51:58;100865.00;;;11.00
17142;BMP180;32805;53.556;9.944;2022-12-20T10:54:34;100850.00;;;11.10
17142;BMP180;32805;53.556;9.944;2022-12-20T10:57:14;100839.00;;;11.10
17142;BMP180;32805;53.556;9.944;2022-12-20T10:59:48;100839.00;;;11.10
17142;BMP180;32805;53.556;9.944;2022-12-20T11:02:26;100818.00;;;11.20
17142;BMP180;32805;53.556;9.944;2022-12-20T11:05:20;100817.00;;;11.20
17142;BMP180;32805;53.556;9.944;2022-12-20T11:07:53;100827.00;;;11.30
17142;BMP180;32805;53.556;9.944;2022-12-20T11:10:42;100839.00;;;11.30
17142;BMP180;32805;53.556;9.944;2022-12-20T11:13:20;100828.00;;;11.30
17142;BMP180;32805;53.556;9.944;2022-12-20T11:15:49;100825.00;;;11.30
17142;BMP180;32805;53.556;9.944;2022-12-20T11:18:25;100816.00;;;11.50
17142;BMP180;32805;53.556;9.944;2022-12-20T11:20:59;100816.00;;;11.50
17142;BMP180;32805;53.556;9.944;2022-12-20T11:23:34;100815.00;;;11.60
17142;BMP180;32805;53.556;9.944;2022-12-20T11:26:13;100819.00;;;11.50
17142;BMP180;32805;53.556;9.944;2022-12-20T11:28:59;100820.00;;;11.50
17142;BMP180;32805;53.556;9.944;2022-12-20T11:31:39;100797.00;;;11.50
17142;BMP180;32805;53.556;9.944;2022-12-20T11:34:21;100796.00;;;11.50
17142;BMP180;32805;53.556;9.944;2022-12-20T11:37:01;100799.00;;;11.50
17142;BMP180;32805;53.556;9.944;2022-12-20T11:39:39;100797.00;;;11.40
17142;BMP180;32805;53.556;9.944;2022-12-20T11:42:15;100789.00;;;11.50
17142;BMP180;32805;53.556;9.944;2022-12-20T11:44:52;100777.00;;;11.60
17142;BMP180;32805;53.556;9.944;2022-12-20T11:47:49;100783.00;;;11.50
17142;BMP180;32805;53.556;9.944;2022-12-20T11:50:47;100779.00;;;11.50
17142;BMP180;32805;53.556;9.944;2022-12-20T11:53:24;100775.00;;;11.50
17142;BMP180;32805;53.556;9.944;2022-12-20T11:55:58;100783.00;;;11.50
17142;BMP180;32805;53.556;9.944;2022-12-20T11:58:30;100778.00;;;11.60
17142;BMP180;32805;53.556;9.944;2022-12-20T12:01:04;100777.00;;;11.70
17142;BMP180;32805;53.556;9.944;2022-12-20T12:03:34;100775.00;;;11.70
17142;BMP180;32805;53.556;9.944;2022-12-20T12:06:06;100771.00;;;11.60
17142;BMP180;32805;53.556;9.944;2022-12-20T12:08:41;100786.00;;;11.50
17142;BMP180;32805;53.556;9.944;2022-12-20T12:11:16;100764.00;;;11.50
17142;BMP180;32805;53.556;9.944;2022-12-20T12:14:05;100774.00;;;11.40
17142;BMP180;32805;53.556;9.944;2022-12-20T12:16:40;100784.00;;;11.40
17142;BMP180;32805;53.556;9.944;2022-12-20T12:19:17;100759.00;;;11.20
17142;BMP180;32805;53.556;9.944;2022-12-20T12:21:49;100782.00;;;11.20
17142;BMP180;32805;53.556;9.944;2022-12-20T12:24:25;100780.00;;;11.20
17142;BMP180;32805;53.556;9.944;2022-12-20T12:26:57;100781.00;;;11.10
17142;BMP180;32805;53.556;9.944;2022-12-20T12:29:28;100764.00;;;11.10
17142;BMP180;32805;53.556;9.944;2022-12-20T12:32:01;100772.00;;;11.00
17142;BMP180;32805;53.556;9.944;2022-12-20T12:34:51;100772.00;;;10.80
17142;BMP180;32805;53.556;9.944;2022-12-20T12:37:37;100773.00;;;10.60
17142;BMP180;32805;53.556;9.944;2022-12-20T12:40:39;100765.00;;;10.50
17142;BMP180;32805;53.556;9.944;2022-12-20T12:43:45;100750.00;;;10.40
17142;BMP180;32805;53.556;9.944;2022-12-20T12:46:17;100764.00;;;10.30
17142;BMP180;32805;53.556;9.944;2022-12-20T12:48:50;100764.00;;;10.30
17142;BMP180;32805;53.556;9.944;2022-12-20T12:51:26;100760.00;;;10.30
17142;BMP180;32805;53.556;9.944;2022-12-20T12:54:11;100753.00;;;10.20
17142;BMP180;32805;53.556;9.944;2022-12-20T12:56:41;100749.00;;;10.10
17142;BMP180;32805;53.556;9.944;2022-12-20T13:02:48;100749.00;;;10.10
17142;BMP180;32805;53.556;9.944;2022-12-20T13:05:31;100746.00;;;10.00
17142;BMP180;32805;53.556;9.944;2022-12-20T13:08:01;100735.00;;;10.00
17142;BMP180;32805;53.556;9.944;2022-12-20T13:13:36;100739.00;;;10.00
17142;BMP180;32805;53.556;9.944;2022-12-20T13:16:11;100740.00;;;9.90
17142;BMP180;32805;53.556;9.944;2022-12-20T13:19:11;100730.00;;;9.90
17142;BMP180;32805;53.556;9.944;2022-12-20T13:21:42;100729.00;;;9.90
17142;BMP180;32805;53.556;9.944;2022-12-20T13:24:37;100729.00;;;9.80
17142;BMP180;32805;53.556;9.944;2022-12-20T13:30:26;100727.00;;;9.80
17142;BMP180;32805;53.556;9.944;2022-12-20T13:33:22;100731.00;;;9.80
17142;BMP180;32805;53.556;9.944;2022-12-20T13:35:59;100733.00;;;9.80
17142;BMP180;32805;53.556;9.944;2022-12-20T13:41:30;100731.00;;;9.70
17142;BMP180;32805;53.556;9.944;2022-12-20T13:44:32;100743.00;;;9.70
17142;BMP180;32805;53.556;9.944;2022-12-20T13:47:11;100743.00;;;9.70
17142;BMP180;32805;53.556;9.944;2022-12-20T13:49:42;100751.00;;;9.70
17142;BMP180;32805;53.556;9.944;2022-12-20T13:52:16;100748.00;;;9.60
17142;BMP180;32805;53.556;9.944;2022-12-20T13:54:47;100750.00;;;9.60
17142;BMP180;32805;53.556;9.944;2022-12-20T13:57:26;100748.00;;;9.70
17142;BMP180;32805;53.556;9.944;2022-12-20T13:59:56;100752.00;;;9.70
17142;BMP180;32805;53.556;9.944;2022-12-20T14:02:38;100740.00;;;9.70
17142;BMP180;32805;53.556;9.944;2022-12-20T14:05:15;100757.00;;;9.70
17142;BMP180;32805;53.556;9.944;2022-12-20T14:07:45;100747.00;;;9.70
17142;BMP180;32805;53.556;9.944;2022-12-20T14:10:19;100757.00;;;9.70
17142;BMP180;32805;53.556;9.944;2022-12-20T14:12:48;100758.00;;;9.80
17142;BMP180;32805;53.556;9.944;2022-12-20T14:15:26;100757.00;;;9.80
17142;BMP180;32805;53.556;9.944;2022-12-20T14:17:55;100762.00;;;9.80
17142;BMP180;32805;53.556;9.944;2022-12-20T14:20:27;100759.00;;;9.80
17142;BMP180;32805;53.556;9.944;2022-12-20T14:22:59;100756.00;;;9.70
17142;BMP180;32805;53.556;9.944;2022-12-20T14:25:36;100751.00;;;9.70
17142;BMP180;32805;53.556;9.944;2022-12-20T14:28:15;100744.00;;;9.70
17142;BMP180;32805;53.556;9.944;2022-12-20T14:30:52;100739.00;;;9.70
17142;BMP180;32805;53.556;9.944;2022-12-20T14:33:28;100730.00;;;9.70
17142;BMP180;32805;53.556;9.944;2022-12-20T14:35:56;100720.00;;;9.70
17142;BMP180;32805;53.556;9.944;2022-12-20T14:38:28;100730.00;;;9.60
17142;BMP180;32805;53.556;9.944;2022-12-20T14:40:57;100730.00;;;9.60
17142;BMP180;32805;53.556;9.944;2022-12-20T14:43:26;100735.00;;;9.60
17142;BMP180;32805;53.556;9.944;2022-12-20T14:46:16;100729.00;;;9.60
17142;BMP180;32805;53.556;9.944;2022-12-20T14:48:46;100734.00;;;9.60
17142;BMP180;32805;53.556;9.944;2022-12-20T14:51:19;100740.00;;;9.60
17142;BMP180;32805;53.556;9.944;2022-12-20T14:53:49;100726.00;;;9.50